ケアンズ の空港の天気 - METARとTAF

ケアンズ国際空港 ( YBCS / CNS ) - オーストラリア クイーンズランド州ケアンズ
飛行場実況気象(Metar)
観測時間07/23 04:00 AEST (07/22 18:00 UTC)
風向・風速南東 4m/s
視程10km以上
天気現象
少しの雲 雲底高度 760m
全天の4割程度の雲 雲底高度 1220m
気温20℃
湿度88%
気圧1015hPa
METARYBCS 221800Z 14007KT 9999 FEW025 SCT040 20/18 Q1015
過去の天気等 Google飛行場航空写真 Wunderground天気予報

過去48時間のMETAR

飛行場予報(TAF)
発表時間: 7/23 03:09 AEST (7/22 17:09 UTC)
予報対象時間: 23日4時 AEST ~ 24日4時 AEST
風向・風速南南東 4m/s
視程10km以上
少しの雲 雲底高度 760m
全天の4割程度の雲 雲底高度 1220m
23日10時 AEST から
風向・風速東 7m/s
視程10km以上
少しの雲 雲底高度 910m
23日18時 AEST から
風向・風速南南東 4m/s
視程10km以上
少しの雲 雲底高度 760m
全天の4割程度の雲 雲底高度 1070m
TAF YBCS 221709Z 2218/2318 16008KT 9999 FEW025 SCT040
FM230000 10013KT 9999 FEW030
FM230800 16008KT 9999 FEW025 SCT035